createdAt,value
2018-08-03T00:02:32.474Z,101828.83
2018-08-03T00:07:25.044Z,101823.14
2018-08-03T00:12:17.605Z,101819.73
2018-08-03T00:17:10.168Z,101825.95
2018-08-03T00:22:02.726Z,101825.98
2018-08-03T00:26:55.241Z,101822.72
2018-08-03T00:31:47.806Z,101824.96
2018-08-03T00:36:40.415Z,101826.77
2018-08-03T00:41:33.027Z,101824.18
2018-08-03T00:46:25.575Z,101832.84
2018-08-03T00:51:18.102Z,101821.66
2018-08-03T00:56:10.662Z,101825.14
2018-08-03T01:01:03.276Z,101823.55
2018-08-03T01:05:55.884Z,101819.04
2018-08-03T01:10:48.438Z,101823.25
2018-08-03T01:15:40.994Z,101822.84
2018-08-03T01:20:33.552Z,101838.61
2018-08-03T01:25:26.159Z,101846.63
2018-08-03T01:30:18.663Z,101836.41
2018-08-03T01:35:11.362Z,101836.11
2018-08-03T01:40:04.296Z,101837.49
2018-08-03T01:44:56.878Z,101839.69
2018-08-03T01:49:49.459Z,101834.22
2018-08-03T01:54:41.994Z,101841.44
2018-08-03T01:59:34.584Z,101842.33
2018-08-03T02:04:27.151Z,101854.52
2018-08-03T02:09:19.747Z,101846.34
2018-08-03T02:14:12.344Z,101848.13
2018-08-03T02:19:04.907Z,101850.16
2018-08-03T02:23:57.551Z,101855.25
2018-08-03T02:28:50.112Z,101848.39
2018-08-03T02:33:42.630Z,101849.77
2018-08-03T02:38:35.154Z,101855.55
2018-08-03T02:43:27.806Z,101854.69
2018-08-03T02:48:20.324Z,101853.61
2018-08-03T02:53:12.931Z,101854.46
2018-08-03T02:58:05.481Z,101854.82
2018-08-03T03:02:58.030Z,101850.48
2018-08-03T03:07:50.591Z,101848.41
2018-08-03T03:12:43.190Z,101849.30
2018-08-03T03:17:35.806Z,101854.30
2018-08-03T03:22:28.357Z,101851.61
2018-08-03T03:27:21.009Z,101843.17
2018-08-03T03:32:13.611Z,101850.09
2018-08-03T03:37:06.359Z,101851.23
2018-08-03T03:41:59.017Z,101857.37
2018-08-03T03:46:51.597Z,101850.78
2018-08-03T03:51:44.150Z,101853.27
2018-08-03T03:56:36.841Z,101848.88
2018-08-03T04:01:29.450Z,101851.72
2018-08-03T04:06:22.024Z,101853.75
2018-08-03T04:11:14.566Z,101851.05
2018-08-03T04:16:07.251Z,101843.43
2018-08-03T04:20:59.841Z,101843.66
2018-08-03T04:25:52.386Z,101852.74
2018-08-03T04:30:45.038Z,101859.33
2018-08-03T04:35:37.982Z,101852.48
2018-08-03T04:40:30.589Z,101854.75
2018-08-03T04:45:23.131Z,101861.37
2018-08-03T04:50:15.756Z,101871.82
2018-08-03T04:55:08.403Z,101877.06
2018-08-03T05:00:00.956Z,101880.59
2018-08-03T05:04:53.510Z,101881.63
2018-08-03T05:09:46.171Z,101882.42
2018-08-03T05:14:38.852Z,101881.30
2018-08-03T05:19:31.460Z,101880.46
2018-08-03T05:24:24.060Z,101887.55
2018-08-03T05:29:16.658Z,101890.28
2018-08-03T05:34:09.299Z,101892.22
2018-08-03T05:39:02.149Z,101897.41
2018-08-03T05:43:54.743Z,101901.45
2018-08-03T05:48:47.283Z,101895.05
2018-08-03T05:53:39.925Z,101893.33
2018-08-03T05:58:32.555Z,101891.64
2018-08-03T06:03:25.198Z,101895.22
2018-08-03T06:08:17.787Z,101894.04
2018-08-03T06:13:10.820Z,101907.47
2018-08-03T06:18:03.428Z,101905.71
2018-08-03T06:22:56.006Z,101914.71
2018-08-03T06:27:48.686Z,101912.72
2018-08-03T06:32:41.315Z,101901.11
2018-08-03T06:37:33.966Z,101911.77
2018-08-03T06:42:26.619Z,101907.31
2018-08-03T06:47:19.199Z,101909.19
2018-08-03T06:52:11.923Z,101904.14
2018-08-03T06:57:04.820Z,101896.56
2018-08-03T07:01:57.423Z,101891.24
2018-08-03T07:06:50.056Z,101887.20
2018-08-03T07:11:42.623Z,101885.73
2018-08-03T07:16:35.212Z,101880.41
2018-08-03T07:21:27.818Z,101879.16
2018-08-03T07:26:20.340Z,101876.69
2018-08-03T07:31:13.087Z,101871.80
2018-08-03T07:36:05.724Z,101877.23
2018-08-03T07:40:58.281Z,101872.58
2018-08-03T07:45:50.852Z,101880.09
2018-08-03T07:50:43.417Z,101873.16
2018-08-03T07:55:36.113Z,101866.74
2018-08-03T08:00:28.709Z,101865.87
2018-08-03T08:05:21.261Z,101872.62
2018-08-03T08:10:14.060Z,101869.54
2018-08-03T08:15:06.818Z,101867.33
2018-08-03T08:19:59.367Z,101878.44
2018-08-03T08:24:51.959Z,101870.72
2018-08-03T08:29:44.493Z,101872.97
2018-08-03T08:34:37.101Z,101863.55
2018-08-03T08:39:29.680Z,101868.50
2018-08-03T08:44:22.295Z,101868.89
2018-08-03T08:49:14.909Z,101863.78
2018-08-03T08:54:07.616Z,101865.55
2018-08-03T08:59:00.228Z,101852.19
2018-08-03T09:03:52.889Z,101843.27
2018-08-03T09:08:45.470Z,101848.47
2018-08-03T09:13:38.189Z,101838.01
2018-08-03T09:18:30.995Z,101840.06
2018-08-03T09:23:23.637Z,101840.48
2018-08-03T09:28:16.216Z,101830.39
2018-08-03T09:33:08.835Z,101824.25
2018-08-03T09:38:01.435Z,101826.54
2018-08-03T09:42:54.037Z,101816.56
2018-08-03T09:47:46.634Z,101814.41
2018-08-03T09:52:39.198Z,101816.73
2018-08-03T09:57:31.869Z,101806.09
2018-08-03T10:02:24.423Z,101801.64
2018-08-03T10:07:16.988Z,101796.42
2018-08-03T10:12:09.595Z,101804.70
2018-08-03T10:17:02.218Z,101796.59
2018-08-03T10:21:54.801Z,101794.73
2018-08-03T10:26:47.379Z,101788.15
2018-08-03T10:31:40.067Z,101784.34
2018-08-03T10:36:32.635Z,101789.27
2018-08-03T10:41:25.206Z,101777.50
2018-08-03T10:46:17.811Z,101774.66
2018-08-03T10:51:10.427Z,101769.23
2018-08-03T10:56:03.065Z,101768.01
2018-08-03T11:00:55.626Z,101756.37
2018-08-03T11:05:48.239Z,101755.64
2018-08-03T11:10:40.970Z,101751.84
2018-08-03T11:15:33.529Z,101748.08
2018-08-03T11:20:26.099Z,101741.16
2018-08-03T11:25:18.649Z,101745.41
2018-08-03T11:30:11.603Z,101739.63
2018-08-03T11:35:04.955Z,101736.72
2018-08-03T11:45:22.906Z,101729.47
2018-08-03T11:50:15.434Z,101725.37
2018-08-03T11:55:08.061Z,101718.95
2018-08-03T12:00:00.632Z,101714.05
2018-08-03T12:04:53.239Z,101707.14
2018-08-03T12:09:45.801Z,101706.54
2018-08-03T12:14:38.381Z,101703.92
2018-08-03T12:19:30.930Z,101683.77
2018-08-03T12:24:23.546Z,101693.64
2018-08-03T12:29:16.147Z,101686.87
2018-08-03T12:34:08.757Z,101694.47
2018-08-03T12:39:01.318Z,101674.48
2018-08-03T12:43:54.003Z,101664.78
2018-08-03T12:48:46.571Z,101663.60
2018-08-03T12:53:39.141Z,101663.41
2018-08-03T12:58:31.688Z,101649.07
2018-08-03T13:03:24.285Z,101653.00
2018-08-03T13:08:16.947Z,101640.98
2018-08-03T13:13:09.425Z,101637.64
2018-08-03T13:18:01.938Z,101633.72
2018-08-03T13:23:01.120Z,101633.45
2018-08-03T13:27:53.710Z,101633.13
2018-08-03T13:32:46.271Z,101625.30
2018-08-03T13:37:38.814Z,101619.97
2018-08-03T13:42:31.430Z,101614.72
2018-08-03T13:47:24.025Z,101605.77
2018-08-03T13:52:16.630Z,101606.84
2018-08-03T13:57:09.254Z,101593.56
2018-08-03T14:02:21.170Z,101586.55
2018-08-03T14:07:13.737Z,101588.17
2018-08-03T14:12:06.412Z,101573.37
2018-08-03T14:16:59.004Z,101567.97
2018-08-03T14:21:51.631Z,101564.23
2018-08-03T14:26:44.208Z,101567.23
2018-08-03T14:31:36.853Z,101556.42
2018-08-03T14:36:29.345Z,101550.38
2018-08-03T14:41:21.945Z,101540.94
2018-08-03T14:46:14.556Z,101536.91
2018-08-03T14:51:07.233Z,101536.70
2018-08-03T14:55:59.837Z,101523.05
2018-08-03T15:00:52.454Z,101526.23
2018-08-03T15:05:45.064Z,101520.34
2018-08-03T15:10:37.650Z,101520.90
2018-08-03T15:15:30.245Z,101516.86
2018-08-03T15:20:22.825Z,101507.42
2018-08-03T15:25:15.398Z,101505.42
2018-08-03T15:30:09.713Z,101499.94
2018-08-03T15:35:02.360Z,101504.53
2018-08-03T15:39:54.975Z,101495.64
2018-08-03T15:44:47.571Z,101494.54
2018-08-03T15:49:40.190Z,101491.44
2018-08-03T15:54:32.806Z,101488.58
2018-08-03T15:59:25.338Z,101490.36
2018-08-03T16:04:18.680Z,101479.91
2018-08-03T16:09:11.241Z,101474.77
2018-08-03T16:14:03.757Z,101470.15
2018-08-03T16:18:56.371Z,101462.75
2018-08-03T16:23:48.970Z,101465.56
2018-08-03T16:28:41.714Z,101466.75
2018-08-03T16:33:34.347Z,101458.92
2018-08-03T16:38:26.977Z,101456.73
2018-08-03T16:43:19.753Z,101452.17
2018-08-03T16:48:12.326Z,101446.29
2018-08-03T16:53:04.934Z,101442.36
2018-08-03T16:57:57.499Z,101441.00
2018-08-03T17:02:50.312Z,101436.73
2018-08-03T17:07:42.922Z,101438.78
2018-08-03T17:12:35.595Z,101429.84
2018-08-03T17:17:28.194Z,101426.53
2018-08-03T17:22:20.849Z,101421.45
2018-08-03T17:27:13.398Z,101424.91
2018-08-03T17:32:06.101Z,101421.56
2018-08-03T17:36:58.614Z,101421.04
2018-08-03T17:41:51.183Z,101416.29
2018-08-03T17:46:43.813Z,101417.97
2018-08-03T17:51:36.481Z,101424.05
2018-08-03T17:56:29.051Z,101421.31
2018-08-03T18:01:21.614Z,101423.36
2018-08-03T18:06:14.151Z,101430.03
2018-08-03T18:11:06.905Z,101432.65
2018-08-03T18:15:59.484Z,101437.47
2018-08-03T18:20:52.037Z,101435.52
2018-08-03T18:25:44.616Z,101438.34
2018-08-03T18:30:37.198Z,101439.52
2018-08-03T18:35:29.855Z,101449.45
2018-08-03T18:40:22.439Z,101444.39
2018-08-03T18:45:14.971Z,101452.33
2018-08-03T18:50:07.607Z,101452.62
2018-08-03T18:55:00.201Z,101455.91
2018-08-03T18:59:52.782Z,101459.63
2018-08-03T19:04:45.362Z,101459.17
2018-08-03T19:09:37.916Z,101462.62
2018-08-03T19:14:30.611Z,101467.50
2018-08-03T19:19:23.199Z,101469.45
2018-08-03T19:24:15.772Z,101464.06
2018-08-03T19:29:08.361Z,101472.59
2018-08-03T19:34:00.926Z,101466.75
2018-08-03T19:38:53.540Z,101470.86
2018-08-03T19:43:46.227Z,101468.50
2018-08-03T19:48:38.807Z,101467.66
2018-08-03T19:53:31.333Z,101468.15
2018-08-03T19:58:24.003Z,101465.02
2018-08-03T20:03:16.558Z,101462.73
2018-08-03T20:08:09.120Z,101465.99
2018-08-03T20:13:01.719Z,101464.27
2018-08-03T20:17:54.306Z,101461.39
2018-08-03T20:22:46.897Z,101459.72
2018-08-03T20:27:39.429Z,101464.02
2018-08-03T20:32:32.023Z,101467.73
2018-08-03T20:37:24.593Z,101463.69
2018-08-03T20:42:17.196Z,101467.83
2018-08-03T20:47:09.851Z,101466.00
2018-08-03T20:52:02.506Z,101466.22
2018-08-03T20:56:55.049Z,101474.55
2018-08-03T21:01:47.739Z,101477.07
2018-08-03T21:06:40.263Z,101475.99
2018-08-03T21:11:32.863Z,101478.06
2018-08-03T21:16:25.434Z,101479.07
2018-08-03T21:21:17.992Z,101474.86
2018-08-03T21:26:10.848Z,101480.84
2018-08-03T21:31:03.384Z,101472.03
2018-08-03T21:35:55.954Z,101476.12
2018-08-03T21:40:48.519Z,101475.62
2018-08-03T21:45:41.133Z,101475.24
2018-08-03T21:50:33.567Z,101469.62
2018-08-03T21:55:26.189Z,101461.86
2018-08-03T22:00:20.873Z,101460.87
2018-08-03T22:05:13.510Z,101459.89
2018-08-03T22:10:06.254Z,101453.89
2018-08-03T22:14:58.827Z,101458.14
2018-08-03T22:19:51.403Z,101459.11
2018-08-03T22:24:43.945Z,101454.73
2018-08-03T22:29:36.534Z,101457.11
2018-08-03T22:34:29.070Z,101451.56
2018-08-03T22:39:21.672Z,101446.89
2018-08-03T22:44:14.230Z,101448.62
2018-08-03T22:49:06.929Z,101441.98
2018-08-03T22:53:59.507Z,101437.92
2018-08-03T22:58:52.074Z,101436.63
2018-08-03T23:03:44.642Z,101431.14
2018-08-03T23:08:37.164Z,101435.19
2018-08-03T23:13:29.737Z,101429.16
2018-08-03T23:18:22.338Z,101423.13
2018-08-03T23:23:14.990Z,101424.94
2018-08-03T23:28:07.560Z,101419.36
2018-08-03T23:33:00.256Z,101417.83
2018-08-03T23:37:52.821Z,101411.44
2018-08-03T23:42:45.342Z,101412.75
2018-08-03T23:47:37.919Z,101410.16
2018-08-03T23:52:30.460Z,101408.95
2018-08-03T23:57:23.074Z,101409.32
